Observation data for White River Lake on 11/14/2019      Previous  Date  Next       Current Mesonet Observations  Soil Data  Daily Summary Page  Observations in Plain Language
KWVS 140600Z 34008KT 04/00 A3005 RMK A01 T00360002  RH  079%=      5-min Rain = 0
KWVS 140605Z 34009KT 04/00 A3005 RMK A01 T00380003  RH  079%=      5-min Rain = 0
KWVS 140610Z 34008KT 04/00 A3005 RMK A01 T00390003  RH  078%=      5-min Rain = 0
KWVS 140615Z 34008KT 04/00 A3006 RMK A01 T00380002  RH  078%=      5-min Rain = 0
KWVS 140620Z 33008KT 04/00 A3006 RMK A01 T00390002  RH  078%=      5-min Rain = 0
KWVS 140625Z 33007KT 04/00 A3006 RMK A01 T00380002  RH  078%=      5-min Rain = 0
KWVS 140630Z 33008KT 04/00 A3007 RMK A01 T00370002  RH  079%=      5-min Rain = 0
KWVS 140635Z 33009KT 04/00 A3007 RMK A01 T00360002  RH  079%=      5-min Rain = 0
KWVS 140640Z 33010KT 04/00 A3007 RMK A01 T00350002  RH  080%=      5-min Rain = 0
KWVS 140645Z 34010KT 04/00 A3007 RMK A01 T00370004  RH  080%=      5-min Rain = 0
KWVS 140650Z 34011KT 04/00 A3007 RMK A01 T00380004  RH  080%=      5-min Rain = 0
KWVS 140655Z 34011KT 04/00 A3008 RMK A01 T00370004  RH  080%=      5-min Rain = 0
KWVS 140700Z 34011KT 04/00 A3008 RMK A01 T00360004  RH  080%=      5-min Rain = 0
KWVS 140705Z 34010KT 03/00 A3008 RMK A01 T00340003  RH  081%=      5-min Rain = 0
KWVS 140710Z 34010KT 03/00 A3008 RMK A01 T00330002  RH  081%=      5-min Rain = 0
KWVS 140715Z 34010KT 03/00 A3008 RMK A01 T00320002  RH  081%=      5-min Rain = 0
KWVS 140720Z 34010KT 03/00 A3008 RMK A01 T00330002  RH  081%=      5-min Rain = 0
KWVS 140725Z 35009KT 03/00 A3009 RMK A01 T00330002  RH  081%=      5-min Rain = 0
KWVS 140730Z 04006KT 03/00 A3009 RMK A01 T00320002  RH  082%=      5-min Rain = 0
KWVS 140735Z 04007KT 03/00 A301 RMK A01 T00340002  RH  081%=      5-min Rain = 0
KWVS 140740Z 03007KT 03/00 A301 RMK A01 T00330000  RH  080%=      5-min Rain = 0
KWVS 140745Z 03006KT 02/M01 A301 RMK A01 T00221006  RH  083%=      5-min Rain = 0
KWVS 140750Z 02007KT 02/M00 A3011 RMK A01 T00211004  RH  084%=      5-min Rain = 0
KWVS 140755Z 01009KT 03/00 A3011 RMK A01 T00280000  RH  083%=      5-min Rain = 0
KWVS 140800Z 00010KT 03/00 A3012 RMK A01 T00310002  RH  082%=      5-min Rain = 0
KWVS 140805Z 36010KT 03/00 A3012 RMK A01 T00320001  RH  081%=      5-min Rain = 0
KWVS 140810Z 35012KT 03/00 A3012 RMK A01 T00310000  RH  081%=      5-min Rain = 0
KWVS 140815Z 35013KT 03/00 A3012 RMK A01 T003000-0  RH  081%=      5-min Rain = 0
KWVS 140820Z 35013KT 03/M00 A3013 RMK A01 T00301001  RH  081%=      5-min Rain = 0
KWVS 140825Z 35013KT 03/M00 A3013 RMK A01 T00281002  RH  081%=      5-min Rain = 0
KWVS 140830Z 35013KT 03/M00 A3013 RMK A01 T00271003  RH  081%=      5-min Rain = 0
KWVS 140835Z 35013KT 03/M00 A3013 RMK A01 T00271003  RH  081%=      5-min Rain = 0
KWVS 140840Z 35013KT 03/M00 A3013 RMK A01 T00261004  RH  081%=      5-min Rain = 0
KWVS 140845Z 35013KT 03/M00 A3013 RMK A01 T00271004  RH  081%=      5-min Rain = 0
KWVS 140850Z 35013KT 03/M01 A3014 RMK A01 T00271005  RH  081%=      5-min Rain = 0
KWVS 140855Z 35012KT 03/M01 A3014 RMK A01 T00261005  RH  081%=      5-min Rain = 0
KWVS 140900Z 35012KT 03/M01 A3014 RMK A01 T00251006  RH  081%=      5-min Rain = 0
KWVS 140905Z 35012KT 02/M01 A3014 RMK A01 T00231007  RH  081%=      5-min Rain = 0
KWVS 140910Z 36013KT 02/M01 A3014 RMK A01 T00231007  RH  081%=      5-min Rain = 0
KWVS 140915Z 35013KT 02/M01 A3014 RMK A01 T00231008  RH  081%=      5-min Rain = 0
KWVS 140920Z 35013KT 02/M01 A3014 RMK A01 T00221009  RH  081%=      5-min Rain = 0
KWVS 140925Z 35012KT 02/M01 A3015 RMK A01 T00201009  RH  082%=      5-min Rain = 0
KWVS 140930Z 35012KT 02/M01 A3015 RMK A01 T00191010  RH  082%=      5-min Rain = 0
KWVS 140935Z 35012KT 02/M01 A3015 RMK A01 T00191010  RH  082%=      5-min Rain = 0
KWVS 140940Z 35012KT 02/M01 A3015 RMK A01 T00191011  RH  082%=      5-min Rain = 0
KWVS 140945Z 35013KT 02/M01 A3015 RMK A01 T00191011  RH  081%=      5-min Rain = 0
KWVS 140950Z 35013KT 02/M01 A3015 RMK A01 T00201011  RH  081%=      5-min Rain = 0
KWVS 140955Z 35014KT 02/M01 A3015 RMK A01 T00201012  RH  080%=      5-min Rain = 0
KWVS 141000Z 35012KT 02/M01 A3016 RMK A01 T00201012  RH  080%=      5-min Rain = 0
KWVS 141005Z 35012KT 02/M01 A3016 RMK A01 T00201013  RH  080%=      5-min Rain = 0
KWVS 141010Z 35012KT 02/M01 A3016 RMK A01 T00191014  RH  079%=      5-min Rain = 0
KWVS 141015Z 35012KT 02/M02 A3016 RMK A01 T00191015  RH  079%=      5-min Rain = 0
KWVS 141020Z 35013KT 02/M02 A3016 RMK A01 T00201016  RH  078%=      5-min Rain = 0
KWVS 141025Z 35012KT 02/M02 A3017 RMK A01 T00201017  RH  077%=      5-min Rain = 0
KWVS 141030Z 35013KT 02/M02 A3017 RMK A01 T00201018  RH  077%=      5-min Rain = 0
KWVS 141035Z 35014KT 02/M02 A3017 RMK A01 T00211018  RH  076%=      5-min Rain = 0
KWVS 141040Z 35014KT 02/M02 A3017 RMK A01 T00211018  RH  076%=      5-min Rain = 0
KWVS 141045Z 35014KT 02/M02 A3018 RMK A01 T00211018  RH  076%=      5-min Rain = 0
KWVS 141050Z 35013KT 02/M02 A3018 RMK A01 T00191019  RH  077%=      5-min Rain = 0
KWVS 141055Z 36013KT 02/M02 A3018 RMK A01 T00181019  RH  077%=      5-min Rain = 0
KWVS 141100Z 35013KT 02/M02 A3018 RMK A01 T00181019  RH  077%=      5-min Rain = 0
KWVS 141105Z 35013KT 02/M02 A3018 RMK A01 T00181020  RH  077%=      5-min Rain = 0
KWVS 141110Z 35011KT 02/M02 A3019 RMK A01 T00171020  RH  077%=      5-min Rain = 0
KWVS 141115Z 35011KT 02/M02 A3019 RMK A01 T00161020  RH  077%=      5-min Rain = 0
KWVS 141120Z 35011KT 02/M02 A3019 RMK A01 T00161021  RH  077%=      5-min Rain = 0
KWVS 141125Z 35013KT 01/M02 A3019 RMK A01 T00141021  RH  078%=      5-min Rain = 0
KWVS 141130Z 35013KT 01/M02 A3019 RMK A01 T00141022  RH  078%=      5-min Rain = 0
KWVS 141135Z 35013KT 01/M02 A3019 RMK A01 T00141022  RH  077%=      5-min Rain = 0
KWVS 141140Z 36013KT 02/M02 A302 RMK A01 T00161023  RH  076%=      5-min Rain = 0
KWVS 141145Z 36014KT 02/M02 A302 RMK A01 T00181024  RH  074%=      5-min Rain = 0
KWVS 141150Z 36014KT 02/M03 A3021 RMK A01 T00191025  RH  074%=      5-min Rain = 0
KWVS 141155Z 36014KT 02/M03 A3021 RMK A01 T00191026  RH  073%=      5-min Rain = 0
KWVS 141200Z 36014KT 02/M03 A3021 RMK A01 T00191027  RH  072%=      5-min Rain = 0
KWVS 141205Z 36014KT 02/M03 A3021 RMK A01 T00201027  RH  071%=      5-min Rain = 0
KWVS 141210Z 00015KT 02/M03 A3021 RMK A01 T00221029  RH  070%=      5-min Rain = 0
KWVS 141215Z 01014KT 02/M03 A3022 RMK A01 T00221030  RH  069%=      5-min Rain = 0
KWVS 141220Z 01013KT 02/M03 A3022 RMK A01 T00221031  RH  069%=      5-min Rain = 0
KWVS 141225Z 01013KT 02/M03 A3022 RMK A01 T00201031  RH  069%=      5-min Rain = 0
KWVS 141230Z 01013KT 02/M03 A3023 RMK A01 T00181032  RH  070%=      5-min Rain = 0
KWVS 141235Z 01013KT 02/M03 A3023 RMK A01 T00181032  RH  070%=      5-min Rain = 0
KWVS 141240Z 00012KT 02/M03 A3024 RMK A01 T00181033  RH  070%=      5-min Rain = 0
KWVS 141245Z 01012KT 02/M03 A3024 RMK A01 T00191033  RH  069%=      5-min Rain = 0
KWVS 141250Z 01013KT 02/M03 A3024 RMK A01 T00191034  RH  068%=      5-min Rain = 0
KWVS 141255Z 01014KT 02/M04 A3024 RMK A01 T00201035  RH  067%=      5-min Rain = 0
KWVS 141300Z 01013KT 02/M04 A3024 RMK A01 T00191036  RH  067%=      5-min Rain = 0
KWVS 141305Z 01013KT 02/M04 A3025 RMK A01 T00191037  RH  067%=      5-min Rain = 0
KWVS 141310Z 01013KT 02/M04 A3025 RMK A01 T00181037  RH  067%=      5-min Rain = 0
KWVS 141315Z 01013KT 02/M04 A3026 RMK A01 T00191037  RH  067%=      5-min Rain = 0
KWVS 141320Z 01013KT 02/M04 A3026 RMK A01 T00191036  RH  067%=      5-min Rain = 0
KWVS 141325Z 02014KT 02/M04 A3026 RMK A01 T00211035  RH  067%=      5-min Rain = 0
KWVS 141330Z 02012G17KT 02/M03 A3027 RMK A01 T00221034  RH  067%=      5-min Rain = 0
KWVS 141335Z 01013G18KT 02/M03 A3027 RMK A01 T00231032  RH  068%=      5-min Rain = 0
KWVS 141340Z 01015KT 02/M03 A3027 RMK A01 T00241031  RH  068%=      5-min Rain = 0
KWVS 141345Z 01015KT 03/M03 A3028 RMK A01 T00261030  RH  067%=      5-min Rain = 0
KWVS 141350Z 01015G21KT 03/M03 A3028 RMK A01 T00271030  RH  067%=      5-min Rain = 0
KWVS 141355Z 01015KT 03/M03 A3029 RMK A01 T00281029  RH  066%=      5-min Rain = 0
KWVS 141400Z 01016G22KT 03/M03 A303 RMK A01 T00291028  RH  066%=      5-min Rain = 0
KWVS 141405Z 01015KT 03/M03 A303 RMK A01 T00311027  RH  066%=      5-min Rain = 0
KWVS 141410Z 01015KT 03/M03 A303 RMK A01 T00321026  RH  066%=      5-min Rain = 0
KWVS 141415Z 02014G19KT 03/M02 A3031 RMK A01 T00341024  RH  066%=      5-min Rain = 0
KWVS 141420Z 02015KT 04/M02 A3031 RMK A01 T00361023  RH  066%=      5-min Rain = 0
KWVS 141425Z 02016KT 04/M02 A3031 RMK A01 T00381022  RH  065%=      5-min Rain = 0
KWVS 141430Z 01014KT 04/M02 A3032 RMK A01 T00401021  RH  065%=      5-min Rain = 0
KWVS 141435Z 02016KT 04/M02 A3032 RMK A01 T00421020  RH  065%=      5-min Rain = 0
KWVS 141440Z 02014KT 05/M02 A3032 RMK A01 T00451017  RH  065%=      5-min Rain = 0
KWVS 141445Z 02014KT 05/M02 A3032 RMK A01 T00471016  RH  064%=      5-min Rain = 0
KWVS 141450Z 02016G22KT 05/M02 A3033 RMK A01 T00491015  RH  064%=      5-min Rain = 0
KWVS 141455Z 02015G20KT 05/M01 A3033 RMK A01 T00501013  RH  064%=      5-min Rain = 0
KWVS 141500Z 02015G20KT 05/M01 A3033 RMK A01 T00521012  RH  064%=      5-min Rain = 0
KWVS 141505Z 02014KT 05/M01 A3034 RMK A01 T00541010  RH  064%=      5-min Rain = 0
KWVS 141510Z 03015KT 06/M01 A3034 RMK A01 T00571008  RH  063%=      5-min Rain = 0
KWVS 141515Z 03017G23KT 06/M01 A3034 RMK A01 T00581007  RH  063%=      5-min Rain = 0
KWVS 141520Z 03016KT 06/M01 A3035 RMK A01 T00611005  RH  063%=      5-min Rain = 0
KWVS 141525Z 03016G21KT 07/M00 A3035 RMK A01 T00661003  RH  062%=      5-min Rain = 0
KWVS 141530Z 03018KT 07/M00 A3035 RMK A01 T00671004  RH  061%=      5-min Rain = 0
KWVS 141535Z 03017KT 07/M00 A3035 RMK A01 T00691004  RH  060%=      5-min Rain = 0
KWVS 141540Z 03017G22KT 07/M01 A3036 RMK A01 T00691005  RH  060%=      5-min Rain = 0
KWVS 141545Z 03017G22KT 07/M01 A3036 RMK A01 T00691006  RH  060%=      5-min Rain = 0
KWVS 141550Z 03016G23KT 07/M01 A3036 RMK A01 T00711005  RH  059%=      5-min Rain = 0
KWVS 141555Z 04018G24KT 07/M01 A3036 RMK A01 T00731007  RH  058%=      5-min Rain = 0
KWVS 141600Z 03018KT 07/M01 A3037 RMK A01 T00741007  RH  057%=      5-min Rain = 0
KWVS 141605Z 04015G21KT 08/M01 A3037 RMK A01 T00761007  RH  056%=      5-min Rain = 0
KWVS 141610Z 03015G21KT 08/M01 A3037 RMK A01 T00781006  RH  056%=      5-min Rain = 0
KWVS 141615Z 03016G21KT 08/M01 A3037 RMK A01 T00801007  RH  055%=      5-min Rain = 0
KWVS 141620Z 03018G23KT 08/M01 A3037 RMK A01 T00811008  RH  054%=      5-min Rain = 0
KWVS 141625Z 03016G21KT 08/M01 A3037 RMK A01 T00821009  RH  053%=      5-min Rain = 0
KWVS 141630Z 03016KT 08/M01 A3038 RMK A01 T00821009  RH  053%=      5-min Rain = 0
KWVS 141635Z 04015KT 09/M01 A3038 RMK A01 T00871008  RH  052%=      5-min Rain = 0
KWVS 141640Z 04015G21KT 09/M01 A3038 RMK A01 T00891009  RH  051%=      5-min Rain = 0
KWVS 141645Z 02018G23KT 09/M01 A3038 RMK A01 T00881009  RH  051%=      5-min Rain = 0
KWVS 141650Z 03018KT 09/M01 A3038 RMK A01 T00891009  RH  051%=      5-min Rain = 0
KWVS 141655Z 04018G23KT 09/M01 A3038 RMK A01 T00901010  RH  050%=      5-min Rain = 0
KWVS 141700Z 04018G26KT 09/M01 A3038 RMK A01 T00901010  RH  050%=      5-min Rain = 0
KWVS 141705Z 04015G21KT 10/M01 A3038 RMK A01 T00951007  RH  049%=      5-min Rain = 0
KWVS 141710Z 05015G20KT 09/M01 A3038 RMK A01 T00931009  RH  049%=      5-min Rain = 0
KWVS 141715Z 04016G21KT 09/M01 A3039 RMK A01 T00931008  RH  050%=      5-min Rain = 0
KWVS 141720Z 03018G25KT 10/M01 A3039 RMK A01 T00961008  RH  049%=      5-min Rain = 0
KWVS 141725Z 04015KT 10/M01 A3039 RMK A01 T00951008  RH  049%=      5-min Rain = 0
KWVS 141730Z 04016G21KT 10/M01 A3038 RMK A01 T00981007  RH  049%=      5-min Rain = 0
KWVS 141735Z 03018G25KT 10/M01 A3038 RMK A01 T00991008  RH  048%=      5-min Rain = 0
KWVS 141740Z 03015G20KT 10/M01 A3038 RMK A01 T01001006  RH  048%=      5-min Rain = 0
KWVS 141745Z 04016G21KT 10/M01 A3038 RMK A01 T01001007  RH  048%=      5-min Rain = 0
KWVS 141750Z 04012KT 10/M01 A3038 RMK A01 T01021005  RH  048%=      5-min Rain = 0
KWVS 141755Z 04013G18KT 11/M00 A3038 RMK A01 T01081004  RH  047%=      5-min Rain = 0
KWVS 141800Z 03014G22KT 11/M01 A3038 RMK A01 T01071006  RH  046%=      5-min Rain = 0
KWVS 141805Z 03016G21KT 10/M01 A3038 RMK A01 T01041008  RH  046%=      5-min Rain = 0
KWVS 141810Z 03017G22KT 10/M01 A3038 RMK A01 T01041008  RH  046%=      5-min Rain = 0
KWVS 141815Z 03016G23KT 11/M01 A3038 RMK A01 T01051008  RH  046%=      5-min Rain = 0
KWVS 141820Z 04014KT 11/M01 A3038 RMK A01 T01071007  RH  046%=      5-min Rain = 0
KWVS 141825Z 03017G22KT 11/M01 A3038 RMK A01 T01051009  RH  046%=      5-min Rain = 0
KWVS 141830Z 04013G18KT 11/M01 A3038 RMK A01 T01081007  RH  045%=      5-min Rain = 0
KWVS 141835Z 04013G19KT 11/M01 A3038 RMK A01 T01101007  RH  045%=      5-min Rain = 0
KWVS 141840Z 03012G18KT 11/M01 A3037 RMK A01 T01111007  RH  044%=      5-min Rain = 0
KWVS 141845Z 04013G18KT 11/M01 A3037 RMK A01 T01131006  RH  044%=      5-min Rain = 0
KWVS 141850Z 04010G15KT 11/M01 A3037 RMK A01 T01111007  RH  045%=      5-min Rain = 0
KWVS 141855Z 04011G17KT 11/M01 A3037 RMK A01 T01131007  RH  044%=      5-min Rain = 0
KWVS 141900Z 05011G18KT 11/M01 A3036 RMK A01 T01141006  RH  044%=      5-min Rain = 0
KWVS 141905Z 03014G19KT 11/M01 A3036 RMK A01 T01121008  RH  044%=      5-min Rain = 0
KWVS 141910Z 02013G19KT 12/M01 A3036 RMK A01 T01151007  RH  043%=      5-min Rain = 0
KWVS 141915Z 03014KT 11/M01 A3036 RMK A01 T01141008  RH  043%=      5-min Rain = 0
KWVS 141920Z 03011KT 11/M01 A3036 RMK A01 T01131008  RH  044%=      5-min Rain = 0
KWVS 141925Z 03013G18KT 12/M01 A3036 RMK A01 T01151007  RH  043%=      5-min Rain = 0
KWVS 141930Z 04011KT 12/M01 A3035 RMK A01 T01151008  RH  043%=      5-min Rain = 0
KWVS 141935Z 04012G17KT 12/M01 A3035 RMK A01 T01181007  RH  043%=      5-min Rain = 0
KWVS 141940Z 05013G18KT 12/M01 A3035 RMK A01 T01161009  RH  042%=      5-min Rain = 0
KWVS 141945Z 05012G18KT 12/M01 A3035 RMK A01 T01161008  RH  043%=      5-min Rain = 0
KWVS 141950Z 05012G18KT 12/M01 A3035 RMK A01 T01181008  RH  042%=      5-min Rain = 0
KWVS 141955Z 03010G16KT 12/M01 A3035 RMK A01 T01181009  RH  042%=      5-min Rain = 0
KWVS 142000Z 05011G17KT 12/M01 A3035 RMK A01 T01191007  RH  042%=      5-min Rain = 0
KWVS 142005Z 04012G18KT 12/M01 A3035 RMK A01 T01191009  RH  042%=      5-min Rain = 0
KWVS 142010Z 03012KT 12/M01 A3035 RMK A01 T01181008  RH  042%=      5-min Rain = 0
KWVS 142015Z 04012G18KT 12/M01 A3035 RMK A01 T01191009  RH  042%=      5-min Rain = 0
KWVS 142020Z 05008G14KT 12/M01 A3035 RMK A01 T01171009  RH  042%=      5-min Rain = 0
KWVS 142025Z 06009G14KT 12/M01 A3035 RMK A01 T01161010  RH  042%=      5-min Rain = 0
KWVS 142030Z 04012G17KT 12/M01 A3034 RMK A01 T01181008  RH  042%=      5-min Rain = 0
KWVS 142035Z 04010KT 12/M01 A3034 RMK A01 T01191007  RH  042%=      5-min Rain = 0
KWVS 142040Z 03012KT 12/M01 A3034 RMK A01 T01191009  RH  041%=      5-min Rain = 0
KWVS 142045Z 01010KT 12/M01 A3034 RMK A01 T01191008  RH  042%=      5-min Rain = 0
KWVS 142050Z 03009G14KT 12/M01 A3034 RMK A01 T01201008  RH  042%=      5-min Rain = 0
KWVS 142055Z 05010KT 12/M01 A3034 RMK A01 T01181010  RH  042%=      5-min Rain = 0
KWVS 142100Z 06009G14KT 12/M01 A3034 RMK A01 T01171009  RH  042%=      5-min Rain = 0
KWVS 142105Z 04009KT 12/M01 A3035 RMK A01 T01221007  RH  041%=      5-min Rain = 0
KWVS 142110Z 03010KT 12/M01 A3035 RMK A01 T01191009  RH  042%=      5-min Rain = 0
KWVS 142115Z 04008G14KT 12/M01 A3035 RMK A01 T01191009  RH  042%=      5-min Rain = 0
KWVS 142120Z 01010G15KT 12/M01 A3034 RMK A01 T01181009  RH  042%=      5-min Rain = 0
KWVS 142125Z 02011KT 12/M01 A3034 RMK A01 T01191008  RH  042%=      5-min Rain = 0
KWVS 142130Z 03010KT 12/M01 A3034 RMK A01 T01201008  RH  042%=      5-min Rain = 0
KWVS 142135Z 03011KT 12/M01 A3034 RMK A01 T01191008  RH  042%=      5-min Rain = 0
KWVS 142140Z 02008KT 12/M01 A3034 RMK A01 T01191009  RH  042%=      5-min Rain = 0
KWVS 142145Z 02011KT 12/M01 A3034 RMK A01 T01191009  RH  042%=      5-min Rain = 0
KWVS 142150Z 01011KT 12/M01 A3034 RMK A01 T01201009  RH  041%=      5-min Rain = 0
KWVS 142155Z 02008KT 12/M01 A3035 RMK A01 T01181009  RH  042%=      5-min Rain = 0
KWVS 142200Z 01008KT 12/M01 A3035 RMK A01 T01181010  RH  042%=      5-min Rain = 0
KWVS 142205Z 04006KT 12/M01 A3035 RMK A01 T01161010  RH  042%=      5-min Rain = 0
KWVS 142210Z 03008KT 12/M01 A3035 RMK A01 T01181009  RH  042%=      5-min Rain = 0
KWVS 142215Z 04009KT 12/M01 A3035 RMK A01 T01161011  RH  042%=      5-min Rain = 0
KWVS 142220Z 02006KT 12/M01 A3035 RMK A01 T01161010  RH  042%=      5-min Rain = 0
KWVS 142225Z 00008KT 12/M01 A3035 RMK A01 T01161010  RH  042%=      5-min Rain = 0
KWVS 142230Z 02009G14KT 12/M01 A3035 RMK A01 T01171010  RH  042%=      5-min Rain = 0
KWVS 142235Z 02008KT 11/M01 A3035 RMK A01 T01141011  RH  042%=      5-min Rain = 0
KWVS 142240Z 01008KT 11/M01 A3035 RMK A01 T01121011  RH  043%=      5-min Rain = 0
KWVS 142245Z 05006KT 11/M01 A3035 RMK A01 T01121009  RH  043%=      5-min Rain = 0
KWVS 142250Z 03007KT 11/M01 A3035 RMK A01 T01121009  RH  043%=      5-min Rain = 0
KWVS 142255Z 02009KT 11/M01 A3035 RMK A01 T01101010  RH  044%=      5-min Rain = 0
KWVS 142300Z 03008KT 11/M01 A3035 RMK A01 T01081010  RH  044%=      5-min Rain = 0
KWVS 142305Z 02008KT 11/M01 A3035 RMK A01 T01071010  RH  045%=      5-min Rain = 0
KWVS 142310Z 03008KT 11/M01 A3035 RMK A01 T01051010  RH  045%=      5-min Rain = 0
KWVS 142315Z 02006KT 10/M01 A3035 RMK A01 T01031010  RH  046%=      5-min Rain = 0
KWVS 142320Z 03006KT 10/M01 A3035 RMK A01 T01011010  RH  047%=      5-min Rain = 0
KWVS 142325Z 03005KT 10/M01 A3036 RMK A01 T00971009  RH  048%=      5-min Rain = 0
KWVS 142330Z 03005KT 09/M01 A3036 RMK A01 T00931009  RH  049%=      5-min Rain = 0
KWVS 142335Z 04006KT 09/M01 A3036 RMK A01 T00911009  RH  050%=      5-min Rain = 0
KWVS 142340Z 04005KT 09/M01 A3036 RMK A01 T00881009  RH  051%=      5-min Rain = 0
KWVS 142345Z 04004KT 08/M01 A3036 RMK A01 T00831009  RH  053%=      5-min Rain = 0
KWVS 142350Z 04004KT 08/M01 A3036 RMK A01 T00811010  RH  053%=      5-min Rain = 0
KWVS 142355Z 04005KT 08/M01 A3036 RMK A01 T00801010  RH  053%=      5-min Rain = 0
KWVS 150000Z 04005KT 08/M01 A3037 RMK A01 T00781011  RH  054%=      5-min Rain = 0
KWVS 150005Z 04005KT 08/M01 A3037 RMK A01 T00771011  RH  054%=      5-min Rain = 0
KWVS 150010Z 04004KT 08/M01 A3037 RMK A01 T00751011  RH  055%=      5-min Rain = 0
KWVS 150015Z 04004KT 07/M01 A3037 RMK A01 T00741011  RH  055%=      5-min Rain = 0
KWVS 150020Z 05004KT 08/M01 A3037 RMK A01 T00751011  RH  055%=      5-min Rain = 0
KWVS 150025Z 06004KT 08/M01 A3038 RMK A01 T00781010  RH  054%=      5-min Rain = 0
KWVS 150030Z 06004KT 08/M01 A3038 RMK A01 T00821010  RH  053%=      5-min Rain = 0
KWVS 150035Z 05003KT 08/M01 A3038 RMK A01 T00791011  RH  053%=      5-min Rain = 0
KWVS 150040Z 04003KT 08/M01 A3038 RMK A01 T00771011  RH  054%=      5-min Rain = 0
KWVS 150045Z 03003KT 08/M01 A3038 RMK A01 T00791011  RH  053%=      5-min Rain = 0
KWVS 150050Z 02004KT 08/M01 A3038 RMK A01 T00801011  RH  053%=      5-min Rain = 0
KWVS 150055Z 01003KT 07/M01 A3038 RMK A01 T00741012  RH  055%=      5-min Rain = 0
KWVS 150100Z 01002KT 07/M01 A3039 RMK A01 T00711013  RH  056%=      5-min Rain = 0
KWVS 150105Z 01002KT 07/M01 A3039 RMK A01 T00671013  RH  057%=      5-min Rain = 0
KWVS 150110Z 00002KT 07/M01 A3039 RMK A01 T00651013  RH  058%=      5-min Rain = 0
KWVS 150115Z 36002KT 06/M01 A3039 RMK A01 T00631014  RH  059%=      5-min Rain = 0
KWVS 150120Z 35003KT 06/M01 A3039 RMK A01 T00601014  RH  060%=      5-min Rain = 0
KWVS 150125Z 34003KT 06/M01 A304 RMK A01 T00571013  RH  061%=      5-min Rain = 0
KWVS 150130Z 33003KT 06/M01 A304 RMK A01 T00571013  RH  061%=      5-min Rain = 0
KWVS 150135Z 34003KT 06/M01 A304 RMK A01 T00571013  RH  061%=      5-min Rain = 0
KWVS 150140Z 34003KT 06/M01 A304 RMK A01 T00581014  RH  060%=      5-min Rain = 0
KWVS 150145Z 34003KT 06/M01 A304 RMK A01 T00591014  RH  060%=      5-min Rain = 0
KWVS 150150Z 36003KT 06/M01 A304 RMK A01 T00611014  RH  059%=      5-min Rain = 0
KWVS 150155Z 36003KT 06/M01 A304 RMK A01 T00641014  RH  058%=      5-min Rain = 0
KWVS 150200Z 00003KT 07/M01 A304 RMK A01 T00661014  RH  057%=      5-min Rain = 0
KWVS 150205Z 00003KT 07/M01 A304 RMK A01 T00651014  RH  058%=      5-min Rain = 0
KWVS 150210Z 00003KT 06/M01 A304 RMK A01 T00621014  RH  059%=      5-min Rain = 0
KWVS 150215Z 00002KT 06/M01 A304 RMK A01 T00591014  RH  060%=      5-min Rain = 0
KWVS 150220Z 00002KT 06/M01 A3041 RMK A01 T00601014  RH  059%=      5-min Rain = 0
KWVS 150225Z 00002KT 06/M01 A3041 RMK A01 T00611014  RH  059%=      5-min Rain = 0
KWVS 150230Z 01002KT 06/M01 A3041 RMK A01 T00601014  RH  059%=      5-min Rain = 0
KWVS 150235Z 35002KT 06/M01 A3041 RMK A01 T00601014  RH  060%=      5-min Rain = 0
KWVS 150240Z 35002KT 06/M01 A3041 RMK A01 T00591014  RH  060%=      5-min Rain = 0
KWVS 150245Z 35001KT 06/M02 A3041 RMK A01 T00581015  RH  060%=      5-min Rain = 0
KWVS 150250Z 35001KT 06/M01 A3041 RMK A01 T00601014  RH  060%=      5-min Rain = 0
KWVS 150255Z 35000KT 06/M01 A3041 RMK A01 T00631014  RH  058%=      5-min Rain = 0
KWVS 150300Z 00000KT 07/M01 A3041 RMK A01 T00661014  RH  057%=      5-min Rain = 0
KWVS 150305Z 00000KT 07/M01 A3042 RMK A01 T00661014  RH  057%=      5-min Rain = 0
KWVS 150310Z 35000KT 07/M02 A3042 RMK A01 T00661015  RH  057%=      5-min Rain = 0
KWVS 150315Z 35000KT 06/M02 A3042 RMK A01 T00631015  RH  058%=      5-min Rain = 0
KWVS 150320Z 00000KT 06/M02 A3042 RMK A01 T00631015  RH  058%=      5-min Rain = 0
KWVS 150325Z 00000KT 06/M02 A3042 RMK A01 T00631015  RH  058%=      5-min Rain = 0
KWVS 150330Z 35000KT 06/M02 A3042 RMK A01 T00631015  RH  058%=      5-min Rain = 0
KWVS 150335Z 35000KT 06/M02 A3042 RMK A01 T00621015  RH  058%=      5-min Rain = 0
KWVS 150340Z 32001KT 06/M02 A3042 RMK A01 T00601015  RH  059%=      5-min Rain = 0
KWVS 150345Z 32001KT 06/M02 A3042 RMK A01 T00601015  RH  059%=      5-min Rain = 0
KWVS 150350Z 32001KT 06/M02 A3042 RMK A01 T00601015  RH  059%=      5-min Rain = 0
KWVS 150355Z 32001KT 06/M02 A3042 RMK A01 T00611015  RH  059%=      5-min Rain = 0
KWVS 150400Z 32001KT 06/M02 A3042 RMK A01 T00621015  RH  058%=      5-min Rain = 0
KWVS 150405Z 32000KT 06/M02 A3042 RMK A01 T00621015  RH  058%=      5-min Rain = 0
KWVS 150410Z 00000KT 06/M02 A3042 RMK A01 T00631015  RH  058%=      5-min Rain = 0
KWVS 150415Z 00000KT 06/M02 A3042 RMK A01 T00641015  RH  058%=      5-min Rain = 0
KWVS 150420Z 32000KT 06/M02 A3042 RMK A01 T00641015  RH  058%=      5-min Rain = 0
KWVS 150425Z 32000KT 06/M02 A3042 RMK A01 T00631015  RH  058%=      5-min Rain = 0
KWVS 150430Z 00000KT 06/M02 A3042 RMK A01 T00641015  RH  058%=      5-min Rain = 0
KWVS 150435Z 32000KT 06/M02 A3042 RMK A01 T00631015  RH  058%=      5-min Rain = 0
KWVS 150440Z 00000KT 06/M02 A3042 RMK A01 T00631015  RH  058%=      5-min Rain = 0
KWVS 150445Z 32000KT 06/M02 A3042 RMK A01 T00621015  RH  058%=      5-min Rain = 0
KWVS 150450Z 09001KT 06/M02 A3042 RMK A01 T00621015  RH  058%=      5-min Rain = 0
KWVS 150455Z 09001KT 06/M02 A3042 RMK A01 T00621015  RH  058%=      5-min Rain = 0
KWVS 150500Z 09001KT 06/M02 A3042 RMK A01 T00631015  RH  058%=      5-min Rain = 0
KWVS 150505Z 09000KT 06/M02 A3042 RMK A01 T00611015  RH  059%=      5-min Rain = 0
KWVS 150510Z 00000KT 06/M02 A3042 RMK A01 T00591015  RH  060%=      5-min Rain = 0
KWVS 150515Z 09001KT 06/M02 A3042 RMK A01 T00591015  RH  059%=      5-min Rain = 0
KWVS 150520Z 09001KT 06/M02 A3042 RMK A01 T00571016  RH  060%=      5-min Rain = 0
KWVS 150525Z 08001KT 06/M02 A3042 RMK A01 T00551016  RH  061%=      5-min Rain = 0
KWVS 150530Z 27002KT 05/M02 A3043 RMK A01 T00511016  RH  062%=      5-min Rain = 0
KWVS 150535Z 25002KT 05/M02 A3043 RMK A01 T00491016  RH  063%=      5-min Rain = 0
KWVS 150540Z 25002KT 05/M02 A3043 RMK A01 T00521016  RH  062%=      5-min Rain = 0
KWVS 150545Z 24003KT 06/M02 A3043 RMK A01 T00551016  RH  061%=      5-min Rain = 0
KWVS 150550Z 26004KT 05/M02 A3043 RMK A01 T00511017  RH  062%=      5-min Rain = 0
KWVS 150555Z 25004KT 05/M02 A3043 RMK A01 T00461017  RH  064%=      5-min Rain = 0

Page generated in 0.0094 seconds.